sensor_id;sensor_type;location;lat;lon;timestamp;pressure;altitude;pressure_sealevel;temperature;humidity
35649;BME280;21768;48.562;13.414;2023-05-12T00:02:14;96983.84;;;12.97;71.81
35649;BME280;21768;48.562;13.414;2023-05-12T00:04:40;96979.50;;;12.94;71.49
35649;BME280;21768;48.562;13.414;2023-05-12T00:07:05;96983.84;;;12.97;71.94
35649;BME280;21768;48.562;13.414;2023-05-12T00:09:31;96972.22;;;13.00;72.04
35649;BME280;21768;48.562;13.414;2023-05-12T00:11:57;96980.59;;;12.99;71.82
35649;BME280;21768;48.562;13.414;2023-05-12T00:14:22;96984.88;;;13.00;71.90
35649;BME280;21768;48.562;13.414;2023-05-12T00:16:48;96977.13;;;12.97;71.88
35649;BME280;21768;48.562;13.414;2023-05-12T00:19:18;96979.50;;;12.94;71.90
35649;BME280;21768;48.562;13.414;2023-05-12T00:21:44;96982.81;;;12.93;72.15
35649;BME280;21768;48.562;13.414;2023-05-12T00:24:10;96980.84;;;12.87;72.00
35649;BME280;21768;48.562;13.414;2023-05-12T00:26:35;96985.66;;;12.81;72.19
35649;BME280;21768;48.562;13.414;2023-05-12T00:29:01;96986.34;;;12.79;72.47
35649;BME280;21768;48.562;13.414;2023-05-12T00:31:26;96983.59;;;12.74;72.57
35649;BME280;21768;48.562;13.414;2023-05-12T00:33:53;96984.31;;;12.72;72.37
35649;BME280;21768;48.562;13.414;2023-05-12T00:36:18;96984.94;;;12.68;72.55
35649;BME280;21768;48.562;13.414;2023-05-12T00:38:44;96989.72;;;12.62;nan
35649;BME280;21768;48.562;13.414;2023-05-12T00:41:09;96984.50;;;12.58;73.13
35649;BME280;21768;48.562;13.414;2023-05-12T00:43:35;96981.97;;;12.58;73.49
35649;BME280;21768;48.562;13.414;2023-05-12T00:46:03;96984.50;;;12.58;73.75
35649;BME280;21768;48.562;13.414;2023-05-12T00:48:30;96985.13;;;12.54;73.97
35649;BME280;21768;48.562;13.414;2023-05-12T00:50:56;96979.22;;;12.54;74.10
35649;BME280;21768;48.562;13.414;2023-05-12T00:53:23;96978.34;;;12.53;74.28
35649;BME280;21768;48.562;13.414;2023-05-12T00:55:49;96978.34;;;12.53;74.18
35649;BME280;21768;48.562;13.414;2023-05-12T00:58:14;96978.25;;;12.52;74.00
35649;BME280;21768;48.562;13.414;2023-05-12T01:00:40;96979.75;;;12.48;74.27
35649;BME280;21768;48.562;13.414;2023-05-12T01:03:05;96974.53;;;12.45;74.39
35649;BME280;21768;48.562;13.414;2023-05-12T01:05:37;96978.72;;;12.45;74.47
35649;BME280;21768;48.562;13.414;2023-05-12T01:08:04;96988.94;;;12.46;74.39
35649;BME280;21768;48.562;13.414;2023-05-12T01:10:30;96980.47;;;12.46;74.54
35649;BME280;21768;48.562;13.414;2023-05-12T01:12:55;96979.44;;;12.42;74.80
35649;BME280;21768;48.562;13.414;2023-05-12T01:15:21;96985.28;;;12.41;74.76
35649;BME280;21768;48.562;13.414;2023-05-12T01:17:51;96991.00;;;12.37;74.82
35649;BME280;21768;48.562;13.414;2023-05-12T01:20:21;96990.19;;;12.38;74.94
35649;BME280;21768;48.562;13.414;2023-05-12T01:22:48;96995.03;;;12.34;74.99
35649;BME280;21768;48.562;13.414;2023-05-12T01:25:14;96992.69;;;12.37;74.98
35649;BME280;21768;48.562;13.414;2023-05-12T01:27:41;96996.06;;;12.37;75.11
35649;BME280;21768;48.562;13.414;2023-05-12T01:30:08;96997.66;;;12.35;75.11
35649;BME280;21768;48.562;13.414;2023-05-12T01:32:35;96995.13;;;12.35;75.20
35649;BME280;21768;48.562;13.414;2023-05-12T01:35:02;96994.16;;;12.33;75.38
35649;BME280;21768;48.562;13.414;2023-05-12T01:37:28;96995.91;;;12.34;75.22
35649;BME280;21768;48.562;13.414;2023-05-12T01:39:53;96996.72;;;12.33;75.43
35649;BME280;21768;48.562;13.414;2023-05-12T01:42:18;96995.91;;;12.34;75.46
35649;BME280;21768;48.562;13.414;2023-05-12T01:44:44;96996.72;;;12.33;75.43
35649;BME280;21768;48.562;13.414;2023-05-12T01:47:09;96998.44;;;12.34;75.27
35649;BME280;21768;48.562;13.414;2023-05-12T01:49:36;97000.03;;;12.32;75.36
35649;BME280;21768;48.562;13.414;2023-05-12T01:52:01;97003.34;;;12.31;75.49
35649;BME280;21768;48.562;13.414;2023-05-12T01:54:27;97000.81;;;12.31;75.54
35649;BME280;21768;48.562;13.414;2023-05-12T01:56:52;97000.09;;;12.34;75.77
35649;BME280;21768;48.562;13.414;2023-05-12T01:59:18;96998.44;;;12.34;75.35
35649;BME280;21768;48.562;13.414;2023-05-12T02:01:43;97000.03;;;12.32;75.38
35649;BME280;21768;48.562;13.414;2023-05-12T02:04:08;97001.69;;;12.32;75.32
35649;BME280;21768;48.562;13.414;2023-05-12T02:06:34;97004.06;;;12.29;75.49
35649;BME280;21768;48.562;13.414;2023-05-12T02:09:00;97009.19;;;12.30;75.50
35649;BME280;21768;48.562;13.414;2023-05-12T02:11:25;97009.34;;;12.33;75.58
35649;BME280;21768;48.562;13.414;2023-05-12T02:13:50;97005.16;;;12.34;75.52
35649;BME280;21768;48.562;13.414;2023-05-12T02:16:16;97007.78;;;12.35;75.71
35649;BME280;21768;48.562;13.414;2023-05-12T02:18:41;97011.31;;;12.39;75.52
35649;BME280;21768;48.562;13.414;2023-05-12T02:21:07;96998.81;;;12.42;75.54
35649;BME280;21768;48.562;13.414;2023-05-12T02:23:32;97007.34;;;12.44;75.48
35649;BME280;21768;48.562;13.414;2023-05-12T02:25:57;97006.31;;;12.40;75.59
35649;BME280;21768;48.562;13.414;2023-05-12T02:28:23;97004.75;;;12.42;75.69
35649;BME280;21768;48.562;13.414;2023-05-12T02:30:49;97006.47;;;12.43;75.95
35649;BME280;21768;48.562;13.414;2023-05-12T02:33:16;97004.75;;;12.42;75.68
35649;BME280;21768;48.562;13.414;2023-05-12T02:35:42;97009.00;;;12.43;75.80
35649;BME280;21768;48.562;13.414;2023-05-12T02:38:08;97010.75;;;12.44;75.75
35649;BME280;21768;48.562;13.414;2023-05-12T02:40:34;97005.94;;;12.49;75.74
35649;BME280;21768;48.562;13.414;2023-05-12T02:42:59;96999.28;;;12.51;75.70
35649;BME280;21768;48.562;13.414;2023-05-12T02:45:25;97006.16;;;12.53;75.82
35649;BME280;21768;48.562;13.414;2023-05-12T02:47:50;97000.16;;;12.51;75.77
35649;BME280;21768;48.562;13.414;2023-05-12T02:50:16;97000.16;;;12.51;75.82
35649;BME280;21768;48.562;13.414;2023-05-12T02:52:41;97008.63;;;12.52;75.85
35649;BME280;21768;48.562;13.414;2023-05-12T02:55:07;97003.66;;;12.53;76.05
35649;BME280;21768;48.562;13.414;2023-05-12T02:57:32;97002.94;;;12.56;75.97
35649;BME280;21768;48.562;13.414;2023-05-12T03:00:02;97004.75;;;12.58;76.02
35649;BME280;21768;48.562;13.414;2023-05-12T03:02:34;96999.69;;;12.58;75.91
35649;BME280;21768;48.562;13.414;2023-05-12T03:05:01;97000.47;;;12.57;76.02
35649;BME280;21768;48.562;13.414;2023-05-12T03:07:26;97005.69;;;12.60;75.90
35649;BME280;21768;48.562;13.414;2023-05-12T03:09:52;97009.03;;;12.59;75.91
35649;BME280;21768;48.562;13.414;2023-05-12T03:12:17;97002.31;;;12.60;75.89
35649;BME280;21768;48.562;13.414;2023-05-12T03:14:43;96993.97;;;12.63;75.85
35649;BME280;21768;48.562;13.414;2023-05-12T03:17:08;97000.75;;;12.64;75.70
35649;BME280;21768;48.562;13.414;2023-05-12T03:19:34;97004.09;;;12.63;75.79
35649;BME280;21768;48.562;13.414;2023-05-12T03:22:00;97008.88;;;12.56;76.02
35649;BME280;21768;48.562;13.414;2023-05-12T03:24:25;97001.44;;;12.59;76.00
35649;BME280;21768;48.562;13.414;2023-05-12T03:26:51;97004.09;;;12.63;75.82
35649;BME280;21768;48.562;13.414;2023-05-12T03:29:16;97005.81;;;12.64;75.98
35649;BME280;21768;48.562;13.414;2023-05-12T03:31:42;97004.91;;;12.62;75.95
35649;BME280;21768;48.562;13.414;2023-05-12T03:34:07;97006.69;;;12.64;76.12
35649;BME280;21768;48.562;13.414;2023-05-12T03:36:32;97000.91;;;12.67;75.96
35649;BME280;21768;48.562;13.414;2023-05-12T03:38:58;97006.13;;;12.70;76.02
35649;BME280;21768;48.562;13.414;2023-05-12T03:41:23;97012.06;;;12.70;76.05
35649;BME280;21768;48.562;13.414;2023-05-12T03:43:49;97010.34;;;12.69;75.95
35649;BME280;21768;48.562;13.414;2023-05-12T03:46:14;97001.94;;;12.70;76.02
35649;BME280;21768;48.562;13.414;2023-05-12T03:48:39;97004.56;;;12.72;76.09
35649;BME280;21768;48.562;13.414;2023-05-12T03:51:05;97008.03;;;12.74;76.00
35649;BME280;21768;48.562;13.414;2023-05-12T03:53:30;97006.28;;;12.73;75.91
35649;BME280;21768;48.562;13.414;2023-05-12T03:55:56;97001.25;;;12.73;76.09
35649;BME280;21768;48.562;13.414;2023-05-12T03:58:24;97010.41;;;12.71;76.15
35649;BME280;21768;48.562;13.414;2023-05-12T04:00:49;97003.75;;;12.73;76.19
35649;BME280;21768;48.562;13.414;2023-05-12T04:03:15;97008.03;;;12.74;76.25
35649;BME280;21768;48.562;13.414;2023-05-12T04:05:41;97015.63;;;12.74;75.87
35649;BME280;21768;48.562;13.414;2023-05-12T04:08:07;97012.22;;;12.73;76.11
35649;BME280;21768;48.562;13.414;2023-05-12T04:10:37;97018.25;;;12.75;76.37
35649;BME280;21768;48.562;13.414;2023-05-12T04:13:03;97013.19;;;12.75;76.26
35649;BME280;21768;48.562;13.414;2023-05-12T04:15:29;97010.72;;;12.77;76.23
35649;BME280;21768;48.562;13.414;2023-05-12T04:17:54;97017.44;;;12.76;76.21
35649;BME280;21768;48.562;13.414;2023-05-12T04:20:19;97018.47;;;12.80;76.28
35649;BME280;21768;48.562;13.414;2023-05-12T04:22:45;97021.97;;;12.82;76.36
35649;BME280;21768;48.562;13.414;2023-05-12T04:25:11;97016.19;;;12.84;76.17
35649;BME280;21768;48.562;13.414;2023-05-12T04:27:36;97023.84;;;12.86;76.19
35649;BME280;21768;48.562;13.414;2023-05-12T04:30:02;97024.66;;;12.85;76.11
35649;BME280;21768;48.562;13.414;2023-05-12T04:32:27;97033.03;;;12.84;76.75
35649;BME280;21768;48.562;13.414;2023-05-12T04:34:53;97033.09;;;12.85;76.38
35649;BME280;21768;48.562;13.414;2023-05-12T04:37:20;97035.56;;;12.84;76.55
35649;BME280;21768;48.562;13.414;2023-05-12T04:39:46;97039.91;;;12.86;76.65
35649;BME280;21768;48.562;13.414;2023-05-12T04:42:12;97039.91;;;12.86;76.48
35649;BME280;21768;48.562;13.414;2023-05-12T04:44:37;97045.81;;;12.87;76.21
35649;BME280;21768;48.562;13.414;2023-05-12T04:47:03;97037.44;;;12.88;76.65
35649;BME280;21768;48.562;13.414;2023-05-12T04:49:28;97041.50;;;12.84;75.96
35649;BME280;21768;48.562;13.414;2023-05-12T04:51:53;97053.38;;;12.85;76.11
35649;BME280;21768;48.562;13.414;2023-05-12T04:54:19;97047.56;;;12.88;75.80
35649;BME280;21768;48.562;13.414;2023-05-12T04:56:44;97054.22;;;12.86;75.88
35649;BME280;21768;48.562;13.414;2023-05-12T04:59:10;97052.63;;;12.88;76.06
35649;BME280;21768;48.562;13.414;2023-05-12T05:01:36;97052.94;;;12.94;76.23
35649;BME280;21768;48.562;13.414;2023-05-12T05:04:01;97049.75;;;12.98;76.28
35649;BME280;21768;48.562;13.414;2023-05-12T05:06:27;97051.50;;;12.99;76.17
35649;BME280;21768;48.562;13.414;2023-05-12T05:08:52;97049.63;;;12.95;76.45
35649;BME280;21768;48.562;13.414;2023-05-12T05:11:19;97052.31;;;12.98;76.46
35649;BME280;21768;48.562;13.414;2023-05-12T05:13:46;97049.91;;;13.01;76.28
35649;BME280;21768;48.562;13.414;2023-05-12T05:16:11;97056.09;;;13.06;75.77
35649;BME280;21768;48.562;13.414;2023-05-12T05:18:37;97051.81;;;13.05;75.76
35649;BME280;21768;48.562;13.414;2023-05-12T05:21:02;97060.06;;;13.01;75.75
35649;BME280;21768;48.562;13.414;2023-05-12T05:23:27;97060.06;;;13.01;75.54
35649;BME280;21768;48.562;13.414;2023-05-12T05:25:53;97062.50;;;13.00;75.71
35649;BME280;21768;48.562;13.414;2023-05-12T05:28:18;97063.38;;;13.00;75.72
35649;BME280;21768;48.562;13.414;2023-05-12T05:30:44;97067.09;;;13.07;75.87
35649;BME280;21768;48.562;13.414;2023-05-12T05:33:09;97062.09;;;13.08;75.75
35649;BME280;21768;48.562;13.414;2023-05-12T05:35:36;97064.56;;;13.07;75.76
35649;BME280;21768;48.562;13.414;2023-05-12T05:38:02;97069.03;;;13.12;75.74
35649;BME280;21768;48.562;13.414;2023-05-12T05:40:27;97063.97;;;13.12;76.02
35649;BME280;21768;48.562;13.414;2023-05-12T05:42:53;97073.50;;;13.16;76.11
35649;BME280;21768;48.562;13.414;2023-05-12T05:45:19;97072.63;;;13.16;75.75
35649;BME280;21768;48.562;13.414;2023-05-12T05:47:44;97069.91;;;13.13;75.65
35649;BME280;21768;48.562;13.414;2023-05-12T05:50:10;97075.72;;;13.10;75.60
35649;BME280;21768;48.562;13.414;2023-05-12T05:52:36;97079.75;;;13.07;75.51
35649;BME280;21768;48.562;13.414;2023-05-12T05:55:01;97071.91;;;13.02;75.47
35649;BME280;21768;48.562;13.414;2023-05-12T05:57:27;97077.94;;;13.04;75.82
35649;BME280;21768;48.562;13.414;2023-05-12T05:59:52;97080.47;;;13.04;75.80
35649;BME280;21768;48.562;13.414;2023-05-12T06:02:18;97077.16;;;13.05;75.75
35649;BME280;21768;48.562;13.414;2023-05-12T06:04:47;97083.25;;;13.09;75.94
35649;BME280;21768;48.562;13.414;2023-05-12T06:07:12;97080.13;;;13.14;75.88
35649;BME280;21768;48.562;13.414;2023-05-12T06:09:38;97083.72;;;13.18;75.72
35649;BME280;21768;48.562;13.414;2023-05-12T06:12:03;97089.78;;;13.21;75.45
35649;BME280;21768;48.562;13.414;2023-05-12T06:14:28;97090.50;;;13.19;75.76
35649;BME280;21768;48.562;13.414;2023-05-12T06:16:54;97100.56;;;13.17;75.59
35649;BME280;21768;48.562;13.414;2023-05-12T06:19:19;97101.97;;;13.12;75.61
35649;BME280;21768;48.562;13.414;2023-05-12T06:21:45;97103.78;;;13.15;75.90
35649;BME280;21768;48.562;13.414;2023-05-12T06:24:10;97101.50;;;13.19;76.06
35649;BME280;21768;48.562;13.414;2023-05-12T06:26:36;97094.88;;;13.21;75.77
35649;BME280;21768;48.562;13.414;2023-05-12T06:29:01;97105.78;;;13.20;75.69
35649;BME280;21768;48.562;13.414;2023-05-12T06:31:27;97100.72;;;13.20;75.59
35649;BME280;21768;48.562;13.414;2023-05-12T06:33:53;97099.22;;;13.24;75.43
35649;BME280;21768;48.562;13.414;2023-05-12T06:36:18;97103.56;;;13.26;75.48
35649;BME280;21768;48.562;13.414;2023-05-12T06:38:43;97106.91;;;13.25;75.53
35649;BME280;21768;48.562;13.414;2023-05-12T06:41:09;97107.13;;;13.30;75.86
35649;BME280;21768;48.562;13.414;2023-05-12T06:43:34;97114.22;;;13.37;75.93
35649;BME280;21768;48.562;13.414;2023-05-12T06:45:59;97114.28;;;13.39;75.87
35649;BME280;21768;48.562;13.414;2023-05-12T06:48:26;97112.72;;;13.41;75.41
35649;BME280;21768;48.562;13.414;2023-05-12T06:50:51;97112.63;;;13.39;75.43
35649;BME280;21768;48.562;13.414;2023-05-12T06:53:17;97114.16;;;13.36;75.17
35649;BME280;21768;48.562;13.414;2023-05-12T06:55:42;97120.03;;;13.35;75.22
35649;BME280;21768;48.562;13.414;2023-05-12T06:58:08;97122.84;;;13.41;75.48
35649;BME280;21768;48.562;13.414;2023-05-12T07:00:34;97109.53;;;13.45;75.86
35649;BME280;21768;48.562;13.414;2023-05-12T07:02:59;97117.28;;;13.48;75.71
35649;BME280;21768;48.562;13.414;2023-05-12T07:05:24;97111.72;;;13.55;75.73
35649;BME280;21768;48.562;13.414;2023-05-12T07:07:50;97116.16;;;13.59;75.76
35649;BME280;21768;48.562;13.414;2023-05-12T07:10:15;97109.69;;;13.66;75.81
35649;BME280;21768;48.562;13.414;2023-05-12T07:12:41;97115.63;;;13.66;75.93
35649;BME280;21768;48.562;13.414;2023-05-12T07:15:07;97110.72;;;13.69;75.70
35649;BME280;21768;48.562;13.414;2023-05-12T07:17:32;97113.56;;;13.75;75.63
35649;BME280;21768;48.562;13.414;2023-05-12T07:19:58;97116.09;;;13.75;75.36
35649;BME280;21768;48.562;13.414;2023-05-12T07:22:23;97119.56;;;13.77;75.38
35649;BME280;21768;48.562;13.414;2023-05-12T07:24:49;97120.50;;;13.79;75.71
35649;BME280;21768;48.562;13.414;2023-05-12T07:27:14;97119.06;;;13.84;75.22
35649;BME280;21768;48.562;13.414;2023-05-12T07:29:40;97118.41;;;13.88;75.29
35649;BME280;21768;48.562;13.414;2023-05-12T07:32:05;97124.47;;;13.92;75.29
35649;BME280;21768;48.562;13.414;2023-05-12T07:34:32;97121.06;;;13.91;75.25
35649;BME280;21768;48.562;13.414;2023-05-12T07:36:58;97120.13;;;13.89;75.38
35649;BME280;21768;48.562;13.414;2023-05-12T07:39:25;97127.81;;;13.91;75.36
35649;BME280;21768;48.562;13.414;2023-05-12T07:41:51;97128.69;;;13.91;75.38
35649;BME280;21768;48.562;13.414;2023-05-12T07:44:18;97127.03;;;13.92;75.10
35649;BME280;21768;48.562;13.414;2023-05-12T07:46:43;97128.84;;;13.94;74.91
35649;BME280;21768;48.562;13.414;2023-05-12T07:49:09;97124.78;;;13.98;74.91
35649;BME280;21768;48.562;13.414;2023-05-12T07:51:34;97130.00;;;14.01;74.92
35649;BME280;21768;48.562;13.414;2023-05-12T07:54:00;97127.53;;;14.03;74.83
35649;BME280;21768;48.562;13.414;2023-05-12T07:56:25;97135.94;;;14.02;74.81
35649;BME280;21768;48.562;13.414;2023-05-12T07:58:51;97137.69;;;14.03;74.77
35649;BME280;21768;48.562;13.414;2023-05-12T08:01:16;97132.63;;;14.03;74.54
35649;BME280;21768;48.562;13.414;2023-05-12T08:03:42;97134.34;;;14.04;74.61
35649;BME280;21768;48.562;13.414;2023-05-12T08:06:07;97131.03;;;14.05;74.79
35649;BME280;21768;48.562;13.414;2023-05-12T08:08:33;97134.44;;;14.05;74.46
35649;BME280;21768;48.562;13.414;2023-05-12T08:10:58;97131.16;;;14.08;74.49
35649;BME280;21768;48.562;13.414;2023-05-12T08:13:24;97135.38;;;14.07;74.64
35649;BME280;21768;48.562;13.414;2023-05-12T08:15:51;97139.72;;;14.10;74.20
35649;BME280;21768;48.562;13.414;2023-05-12T08:18:16;97134.03;;;14.15;74.62
35649;BME280;21768;48.562;13.414;2023-05-12T08:20:42;97129.84;;;14.16;74.50
35649;BME280;21768;48.562;13.414;2023-05-12T08:23:07;97140.94;;;14.18;74.06
35649;BME280;21768;48.562;13.414;2023-05-12T08:25:33;97138.69;;;14.24;74.16
35649;BME280;21768;48.562;13.414;2023-05-12T08:28:00;97134.63;;;14.27;73.64
35649;BME280;21768;48.562;13.414;2023-05-12T08:30:26;97134.78;;;14.30;73.75
35649;BME280;21768;48.562;13.414;2023-05-12T08:32:52;97144.31;;;14.36;73.49
35649;BME280;21768;48.562;13.414;2023-05-12T08:35:18;97133.69;;;14.43;73.04
35649;BME280;21768;48.562;13.414;2023-05-12T08:37:44;97134.75;;;14.48;72.96
35649;BME280;21768;48.562;13.414;2023-05-12T08:40:22;97132.38;;;14.51;72.50
35649;BME280;21768;48.562;13.414;2023-05-12T08:43:06;97143.84;;;14.62;72.59
35649;BME280;21768;48.562;13.414;2023-05-12T08:45:36;97145.16;;;14.72;72.06
35649;BME280;21768;48.562;13.414;2023-05-12T08:48:04;97141.22;;;14.79;71.98
35649;BME280;21768;48.562;13.414;2023-05-12T08:50:34;97140.56;;;14.83;71.89
35649;BME280;21768;48.562;13.414;2023-05-12T08:53:02;97140.34;;;14.78;71.18
35649;BME280;21768;48.562;13.414;2023-05-12T08:55:28;97139.34;;;14.75;71.33
35649;BME280;21768;48.562;13.414;2023-05-12T08:57:55;97140.66;;;14.67;71.19
35649;BME280;21768;48.562;13.414;2023-05-12T09:00:22;97140.88;;;14.71;71.10
35649;BME280;21768;48.562;13.414;2023-05-12T09:02:50;97139.34;;;14.75;71.21
35649;BME280;21768;48.562;13.414;2023-05-12T09:05:15;97146.50;;;14.83;70.80
35649;BME280;21768;48.562;13.414;2023-05-12T09:07:42;97150.72;;;14.83;70.38
35649;BME280;21768;48.562;13.414;2023-05-12T09:10:13;97147.31;;;14.82;69.98
35649;BME280;21768;48.562;13.414;2023-05-12T09:12:40;97147.22;;;14.81;70.10
35649;BME280;21768;48.562;13.414;2023-05-12T09:15:07;97153.34;;;14.86;70.06
35649;BME280;21768;48.562;13.414;2023-05-12T09:17:35;97150.81;;;14.86;70.15
35649;BME280;21768;48.562;13.414;2023-05-12T09:20:01;97152.50;;;14.85;69.95
35649;BME280;21768;48.562;13.414;2023-05-12T09:22:29;97152.38;;;14.82;69.94
35649;BME280;21768;48.562;13.414;2023-05-12T09:24:55;97158.19;;;14.80;69.22
35649;BME280;21768;48.562;13.414;2023-05-12T09:27:25;97152.09;;;14.76;69.49
35649;BME280;21768;48.562;13.414;2023-05-12T09:29:51;97153.97;;;14.80;69.24
35649;BME280;21768;48.562;13.414;2023-05-12T09:32:17;97147.31;;;14.82;69.61
35649;BME280;21768;48.562;13.414;2023-05-12T09:34:42;97159.13;;;14.82;69.59
35649;BME280;21768;48.562;13.414;2023-05-12T09:37:08;97158.34;;;14.83;69.67
35649;BME280;21768;48.562;13.414;2023-05-12T09:39:34;97154.22;;;14.86;69.36
35649;BME280;21768;48.562;13.414;2023-05-12T09:42:00;97152.56;;;14.87;69.39
35649;BME280;21768;48.562;13.414;2023-05-12T09:44:25;97153.63;;;14.92;69.61
35649;BME280;21768;48.562;13.414;2023-05-12T09:46:53;97162.00;;;14.89;69.32
35649;BME280;21768;48.562;13.414;2023-05-12T09:49:23;97156.19;;;14.92;69.74
35649;BME280;21768;48.562;13.414;2023-05-12T09:51:55;97162.94;;;14.91;69.42
35649;BME280;21768;48.562;13.414;2023-05-12T09:54:31;97163.41;;;14.83;69.27
35649;BME280;21768;48.562;13.414;2023-05-12T09:56:58;97170.03;;;14.79;69.93
35649;BME280;21768;48.562;13.414;2023-05-12T09:59:29;97168.59;;;14.67;69.53
35649;BME280;21768;48.562;13.414;2023-05-12T10:01:58;97170.72;;;14.57;69.76
35649;BME280;21768;48.562;13.414;2023-05-12T10:04:23;97165.75;;;14.60;69.63
35649;BME280;21768;48.562;13.414;2023-05-12T10:06:50;97165.75;;;14.60;70.17
35649;BME280;21768;48.562;13.414;2023-05-12T10:09:23;97166.06;;;14.67;70.32
35649;BME280;21768;48.562;13.414;2023-05-12T10:11:50;97166.34;;;14.73;70.46
35649;BME280;21768;48.562;13.414;2023-05-12T10:14:16;97167.34;;;14.76;70.42
35649;BME280;21768;48.562;13.414;2023-05-12T10:16:44;97164.16;;;14.80;70.30
35649;BME280;21768;48.562;13.414;2023-05-12T10:19:09;97160.47;;;14.93;70.30
35649;BME280;21768;48.562;13.414;2023-05-12T10:21:36;97156.47;;;14.98;69.82
35649;BME280;21768;48.562;13.414;2023-05-12T10:24:02;97168.34;;;14.99;69.26
35649;BME280;21768;48.562;13.414;2023-05-12T10:26:29;97165.69;;;14.96;69.05
35649;BME280;21768;48.562;13.414;2023-05-12T10:28:55;97160.88;;;15.02;68.36
35649;BME280;21768;48.562;13.414;2023-05-12T10:31:22;97158.03;;;15.15;67.94
35649;BME280;21768;48.562;13.414;2023-05-12T10:33:57;97163.81;;;15.30;67.79
35649;BME280;21768;48.562;13.414;2023-05-12T10:36:23;97161.25;;;15.30;67.91
35649;BME280;21768;48.562;13.414;2023-05-12T10:38:49;97157.34;;;15.39;67.32
35649;BME280;21768;48.562;13.414;2023-05-12T10:41:15;97162.44;;;15.39;67.48
35649;BME280;21768;48.562;13.414;2023-05-12T10:43:43;97161.44;;;15.35;67.49
35649;BME280;21768;48.562;13.414;2023-05-12T10:49:01;97163.31;;;15.39;66.59
35649;BME280;21768;48.562;13.414;2023-05-12T10:51:32;97162.88;;;15.28;66.23
35649;BME280;21768;48.562;13.414;2023-05-12T10:54:06;97159.78;;;15.16;66.59
35649;BME280;21768;48.562;13.414;2023-05-12T10:59:25;97159.72;;;14.95;67.25
35649;BME280;21768;48.562;13.414;2023-05-12T11:07:02;97168.34;;;14.80;67.68
35649;BME280;21768;48.562;13.414;2023-05-12T11:09:28;97175.47;;;14.69;67.65
35649;BME280;21768;48.562;13.414;2023-05-12T11:11:53;97161.63;;;14.62;67.44
35649;BME280;21768;48.562;13.414;2023-05-12T11:14:19;97169.94;;;14.58;67.54
35649;BME280;21768;48.562;13.414;2023-05-12T11:16:45;97169.00;;;14.56;67.22
35649;BME280;21768;48.562;13.414;2023-05-12T11:19:10;97161.44;;;14.58;67.73
35649;BME280;21768;48.562;13.414;2023-05-12T11:21:37;97169.38;;;14.66;67.84
35649;BME280;21768;48.562;13.414;2023-05-12T11:24:02;97177.16;;;14.69;67.44
35649;BME280;21768;48.562;13.414;2023-05-12T11:26:28;97167.06;;;14.70;66.71
35649;BME280;21768;48.562;13.414;2023-05-12T11:28:57;97174.41;;;14.64;66.28
35649;BME280;21768;48.562;13.414;2023-05-12T11:31:23;97169.66;;;14.72;66.70
35649;BME280;21768;48.562;13.414;2023-05-12T11:33:49;97170.22;;;14.84;66.45
35649;BME280;21768;48.562;13.414;2023-05-12T11:36:18;97172.22;;;14.91;65.35
35649;BME280;21768;48.562;13.414;2023-05-12T11:38:50;97172.97;;;15.08;65.81
35649;BME280;21768;48.562;13.414;2023-05-12T11:41:23;97168.06;;;15.12;65.30
35649;BME280;21768;48.562;13.414;2023-05-12T11:43:49;97177.63;;;15.18;65.32
35649;BME280;21768;48.562;13.414;2023-05-12T11:46:28;97177.63;;;15.18;65.31
35649;BME280;21768;48.562;13.414;2023-05-12T11:48:57;97184.66;;;15.23;65.20
35649;BME280;21768;48.562;13.414;2023-05-12T11:51:24;97179.59;;;15.23;64.48
35649;BME280;21768;48.562;13.414;2023-05-12T11:53:51;97184.94;;;15.29;65.08
35649;BME280;21768;48.562;13.414;2023-05-12T11:56:21;97182.91;;;15.42;64.78
35649;BME280;21768;48.562;13.414;2023-05-12T11:58:55;97184.91;;;15.49;64.64
35649;BME280;21768;48.562;13.414;2023-05-12T12:01:21;97189.50;;;15.56;63.25
35649;BME280;21768;48.562;13.414;2023-05-12T12:03:49;97186.31;;;15.42;63.16
35649;BME280;21768;48.562;13.414;2023-05-12T12:06:15;97192.22;;;15.41;63.01
35649;BME280;21768;48.562;13.414;2023-05-12T12:08:57;97193.75;;;15.38;62.54
35649;BME280;21768;48.562;13.414;2023-05-12T12:11:26;97199.38;;;15.30;62.29
35649;BME280;21768;48.562;13.414;2023-05-12T12:13:53;97192.03;;;15.17;62.33
35649;BME280;21768;48.562;13.414;2023-05-12T12:16:30;97196.72;;;15.08;62.18
35649;BME280;21768;48.562;13.414;2023-05-12T12:18:56;97199.72;;;15.00;62.65
35649;BME280;21768;48.562;13.414;2023-05-12T12:21:23;97203.78;;;14.96;62.18
35649;BME280;21768;48.562;13.414;2023-05-12T12:23:49;97211.47;;;14.97;62.70
35649;BME280;21768;48.562;13.414;2023-05-12T12:26:15;97200.78;;;15.05;63.00
35649;BME280;21768;48.562;13.414;2023-05-12T12:28:45;97202.78;;;15.12;63.07
35649;BME280;21768;48.562;13.414;2023-05-12T12:31:10;97207.78;;;15.10;62.50
35649;BME280;21768;48.562;13.414;2023-05-12T12:33:36;97213.50;;;15.05;62.16
35649;BME280;21768;48.562;13.414;2023-05-12T12:36:02;97209.81;;;14.98;62.23
35649;BME280;21768;48.562;13.414;2023-05-12T12:38:27;97206.84;;;14.89;62.43
35649;BME280;21768;48.562;13.414;2023-05-12T12:40:52;97210.88;;;14.84;62.57
35649;BME280;21768;48.562;13.414;2023-05-12T12:43:18;97208.50;;;14.88;62.93
35649;BME280;21768;48.562;13.414;2023-05-12T12:45:43;97214.03;;;14.97;63.36
35649;BME280;21768;48.562;13.414;2023-05-12T12:48:08;97207.94;;;14.94;63.09
35649;BME280;21768;48.562;13.414;2023-05-12T12:50:35;97211.78;;;14.86;63.14
35649;BME280;21768;48.562;13.414;2023-05-12T12:53:01;97211.53;;;14.80;63.54
35649;BME280;21768;48.562;13.414;2023-05-12T12:55:26;97209.13;;;14.83;63.75
35649;BME280;21768;48.562;13.414;2023-05-12T12:57:51;97215.88;;;14.82;63.46